sensor_id;sensor_type;location;lat;lon;timestamp;P1;durP1;ratioP1;P2;durP2;ratioP2
57615;SDS011;43816;52.054;-9.494;2022-12-18T00:00:07;3.40;;;1.90;;
57615;SDS011;43816;52.054;-9.494;2022-12-18T00:00:18;3.42;;;1.90;;
57615;SDS011;43816;52.054;-9.494;2022-12-18T00:00:31;3.75;;;2.03;;
57615;SDS011;43816;52.054;-9.494;2022-12-18T00:00:42;3.25;;;2.10;;
57615;SDS011;43816;52.054;-9.494;2022-12-18T00:00:53;2.88;;;1.75;;
57615;SDS011;43816;52.054;-9.494;2022-12-18T00:01:04;2.60;;;1.73;;
57615;SDS011;43816;52.054;-9.494;2022-12-18T00:01:23;2.58;;;1.75;;
57615;SDS011;43816;52.054;-9.494;2022-12-18T00:01:35;2.90;;;1.80;;
57615;SDS011;43816;52.054;-9.494;2022-12-18T00:01:47;3.17;;;1.70;;
57615;SDS011;43816;52.054;-9.494;2022-12-18T00:01:58;3.27;;;1.60;;
57615;SDS011;43816;52.054;-9.494;2022-12-18T00:02:11;2.92;;;1.55;;
57615;SDS011;43816;52.054;-9.494;2022-12-18T00:02:22;2.38;;;1.50;;
57615;SDS011;43816;52.054;-9.494;2022-12-18T00:02:32;2.17;;;1.57;;
57615;SDS011;43816;52.054;-9.494;2022-12-18T00:02:42;1.90;;;1.43;;
57615;SDS011;43816;52.054;-9.494;2022-12-18T00:02:53;2.25;;;1.65;;
57615;SDS011;43816;52.054;-9.494;2022-12-18T00:03:03;2.17;;;1.70;;
57615;SDS011;43816;52.054;-9.494;2022-12-18T00:03:14;2.13;;;1.70;;
57615;SDS011;43816;52.054;-9.494;2022-12-18T00:03:24;1.92;;;1.58;;
57615;SDS011;43816;52.054;-9.494;2022-12-18T00:03:35;2.60;;;1.63;;
57615;SDS011;43816;52.054;-9.494;2022-12-18T00:03:46;3.10;;;1.83;;
57615;SDS011;43816;52.054;-9.494;2022-12-18T00:03:57;3.35;;;1.80;;
57615;SDS011;43816;52.054;-9.494;2022-12-18T00:04:11;2.83;;;1.67;;
57615;SDS011;43816;52.054;-9.494;2022-12-18T00:04:28;2.60;;;1.60;;
57615;SDS011;43816;52.054;-9.494;2022-12-18T00:04:41;2.80;;;1.60;;
57615;SDS011;43816;52.054;-9.494;2022-12-18T00:04:51;2.63;;;1.60;;
57615;SDS011;43816;52.054;-9.494;2022-12-18T00:05:01;2.75;;;1.65;;
57615;SDS011;43816;52.054;-9.494;2022-12-18T00:05:11;2.60;;;1.80;;
57615;SDS011;43816;52.054;-9.494;2022-12-18T00:05:22;2.70;;;1.80;;
57615;SDS011;43816;52.054;-9.494;2022-12-18T00:05:32;2.45;;;1.85;;
57615;SDS011;43816;52.054;-9.494;2022-12-18T00:05:46;2.63;;;1.80;;
57615;SDS011;43816;52.054;-9.494;2022-12-18T00:06:01;2.22;;;1.63;;
57615;SDS011;43816;52.054;-9.494;2022-12-18T00:06:12;2.17;;;1.40;;
57615;SDS011;43816;52.054;-9.494;2022-12-18T00:06:22;2.63;;;1.45;;
57615;SDS011;43816;52.054;-9.494;2022-12-18T00:06:34;3.08;;;1.58;;
57615;SDS011;43816;52.054;-9.494;2022-12-18T00:06:45;3.42;;;1.80;;
57615;SDS011;43816;52.054;-9.494;2022-12-18T00:06:55;2.83;;;1.80;;
57615;SDS011;43816;52.054;-9.494;2022-12-18T00:07:06;2.70;;;1.80;;
57615;SDS011;43816;52.054;-9.494;2022-12-18T00:07:16;2.50;;;1.70;;
57615;SDS011;43816;52.054;-9.494;2022-12-18T00:07:26;2.13;;;1.60;;
57615;SDS011;43816;52.054;-9.494;2022-12-18T00:07:37;2.20;;;1.50;;
57615;SDS011;43816;52.054;-9.494;2022-12-18T00:07:47;2.17;;;1.50;;
57615;SDS011;43816;52.054;-9.494;2022-12-18T00:07:57;2.30;;;1.67;;
57615;SDS011;43816;52.054;-9.494;2022-12-18T00:08:08;2.58;;;1.70;;
57615;SDS011;43816;52.054;-9.494;2022-12-18T00:08:20;2.60;;;1.73;;
57615;SDS011;43816;52.054;-9.494;2022-12-18T00:08:31;2.67;;;1.77;;
57615;SDS011;43816;52.054;-9.494;2022-12-18T00:08:42;2.77;;;1.73;;
57615;SDS011;43816;52.054;-9.494;2022-12-18T00:08:54;3.20;;;1.77;;
57615;SDS011;43816;52.054;-9.494;2022-12-18T00:09:05;2.92;;;1.60;;
57615;SDS011;43816;52.054;-9.494;2022-12-18T00:09:15;2.55;;;1.65;;
57615;SDS011;43816;52.054;-9.494;2022-12-18T00:09:26;4.33;;;1.77;;
57615;SDS011;43816;52.054;-9.494;2022-12-18T00:09:36;4.93;;;1.92;;
57615;SDS011;43816;52.054;-9.494;2022-12-18T00:09:50;5.07;;;1.93;;
57615;SDS011;43816;52.054;-9.494;2022-12-18T00:10:00;3.15;;;1.80;;
57615;SDS011;43816;52.054;-9.494;2022-12-18T00:10:10;2.25;;;1.70;;
57615;SDS011;43816;52.054;-9.494;2022-12-18T00:10:20;2.33;;;1.60;;
57615;SDS011;43816;52.054;-9.494;2022-12-18T00:10:34;2.50;;;1.60;;
57615;SDS011;43816;52.054;-9.494;2022-12-18T00:10:44;3.50;;;1.83;;
57615;SDS011;43816;52.054;-9.494;2022-12-18T00:10:56;3.85;;;1.83;;
57615;SDS011;43816;52.054;-9.494;2022-12-18T00:11:15;3.80;;;1.90;;
57615;SDS011;43816;52.054;-9.494;2022-12-18T00:11:30;3.58;;;1.98;;
57615;SDS011;43816;52.054;-9.494;2022-12-18T00:11:41;3.40;;;1.88;;
57615;SDS011;43816;52.054;-9.494;2022-12-18T00:11:51;3.00;;;1.80;;
57615;SDS011;43816;52.054;-9.494;2022-12-18T00:12:02;3.13;;;1.80;;
57615;SDS011;43816;52.054;-9.494;2022-12-18T00:12:12;2.95;;;1.80;;
57615;SDS011;43816;52.054;-9.494;2022-12-18T00:12:22;2.70;;;1.90;;
57615;SDS011;43816;52.054;-9.494;2022-12-18T00:12:33;2.57;;;1.90;;
57615;SDS011;43816;52.054;-9.494;2022-12-18T00:12:43;2.55;;;1.90;;
57615;SDS011;43816;52.054;-9.494;2022-12-18T00:12:53;2.63;;;1.90;;
57615;SDS011;43816;52.054;-9.494;2022-12-18T00:13:03;3.00;;;1.93;;
57615;SDS011;43816;52.054;-9.494;2022-12-18T00:13:14;3.28;;;1.90;;
57615;SDS011;43816;52.054;-9.494;2022-12-18T00:13:24;3.30;;;1.83;;
57615;SDS011;43816;52.054;-9.494;2022-12-18T00:13:34;2.70;;;1.73;;
57615;SDS011;43816;52.054;-9.494;2022-12-18T00:13:45;2.28;;;1.65;;
57615;SDS011;43816;52.054;-9.494;2022-12-18T00:13:59;2.38;;;1.70;;
57615;SDS011;43816;52.054;-9.494;2022-12-18T00:14:13;2.65;;;1.80;;
57615;SDS011;43816;52.054;-9.494;2022-12-18T00:14:23;2.97;;;1.92;;
57615;SDS011;43816;52.054;-9.494;2022-12-18T00:14:33;3.38;;;2.08;;
57615;SDS011;43816;52.054;-9.494;2022-12-18T00:14:46;3.45;;;2.10;;
57615;SDS011;43816;52.054;-9.494;2022-12-18T00:14:57;3.40;;;1.87;;
57615;SDS011;43816;52.054;-9.494;2022-12-18T00:15:07;3.03;;;1.73;;
57615;SDS011;43816;52.054;-9.494;2022-12-18T00:15:17;3.20;;;1.73;;
57615;SDS011;43816;52.054;-9.494;2022-12-18T00:15:28;2.70;;;1.50;;
57615;SDS011;43816;52.054;-9.494;2022-12-18T00:15:38;3.20;;;1.60;;
57615;SDS011;43816;52.054;-9.494;2022-12-18T00:15:49;3.00;;;1.63;;
57615;SDS011;43816;52.054;-9.494;2022-12-18T00:16:03;3.37;;;1.90;;
57615;SDS011;43816;52.054;-9.494;2022-12-18T00:16:16;3.58;;;2.00;;
57615;SDS011;43816;52.054;-9.494;2022-12-18T00:16:29;3.15;;;1.92;;
57615;SDS011;43816;52.054;-9.494;2022-12-18T00:16:40;2.47;;;1.60;;
57615;SDS011;43816;52.054;-9.494;2022-12-18T00:16:53;2.17;;;1.48;;
57615;SDS011;43816;52.054;-9.494;2022-12-18T00:17:03;2.30;;;1.50;;
57615;SDS011;43816;52.054;-9.494;2022-12-18T00:17:14;2.67;;;1.70;;
57615;SDS011;43816;52.054;-9.494;2022-12-18T00:17:24;2.90;;;1.70;;
57615;SDS011;43816;52.054;-9.494;2022-12-18T00:17:34;2.80;;;1.70;;
57615;SDS011;43816;52.054;-9.494;2022-12-18T00:17:44;2.67;;;1.73;;
57615;SDS011;43816;52.054;-9.494;2022-12-18T00:17:55;2.45;;;1.70;;
57615;SDS011;43816;52.054;-9.494;2022-12-18T00:18:05;2.57;;;1.60;;
57615;SDS011;43816;52.054;-9.494;2022-12-18T00:18:16;2.47;;;1.55;;
57615;SDS011;43816;52.054;-9.494;2022-12-18T00:18:26;2.60;;;1.70;;
57615;SDS011;43816;52.054;-9.494;2022-12-18T00:18:36;2.67;;;1.73;;
57615;SDS011;43816;52.054;-9.494;2022-12-18T00:18:47;3.17;;;2.00;;
57615;SDS011;43816;52.054;-9.494;2022-12-18T00:18:59;3.40;;;2.00;;
57615;SDS011;43816;52.054;-9.494;2022-12-18T00:19:10;3.03;;;1.83;;
57615;SDS011;43816;52.054;-9.494;2022-12-18T00:19:20;2.28;;;1.60;;
57615;SDS011;43816;52.054;-9.494;2022-12-18T00:19:31;2.33;;;1.63;;
57615;SDS011;43816;52.054;-9.494;2022-12-18T00:19:41;2.63;;;1.70;;
57615;SDS011;43816;52.054;-9.494;2022-12-18T00:19:51;3.03;;;1.77;;
57615;SDS011;43816;52.054;-9.494;2022-12-18T00:20:02;3.10;;;1.80;;
57615;SDS011;43816;52.054;-9.494;2022-12-18T00:20:12;2.87;;;1.70;;
57615;SDS011;43816;52.054;-9.494;2022-12-18T00:20:22;2.55;;;1.70;;
57615;SDS011;43816;52.054;-9.494;2022-12-18T00:20:36;2.37;;;1.60;;
57615;SDS011;43816;52.054;-9.494;2022-12-18T00:20:48;2.85;;;1.70;;
57615;SDS011;43816;52.054;-9.494;2022-12-18T00:21:02;2.90;;;1.73;;
57615;SDS011;43816;52.054;-9.494;2022-12-18T00:21:14;3.08;;;1.60;;
57615;SDS011;43816;52.054;-9.494;2022-12-18T00:21:25;2.67;;;1.50;;
57615;SDS011;43816;52.054;-9.494;2022-12-18T00:21:39;2.40;;;1.60;;
57615;SDS011;43816;52.054;-9.494;2022-12-18T00:21:50;2.50;;;1.55;;
57615;SDS011;43816;52.054;-9.494;2022-12-18T00:22:00;2.77;;;1.60;;
57615;SDS011;43816;52.054;-9.494;2022-12-18T00:22:11;2.77;;;1.60;;
57615;SDS011;43816;52.054;-9.494;2022-12-18T00:22:21;2.72;;;1.70;;
57615;SDS011;43816;52.054;-9.494;2022-12-18T00:22:31;2.73;;;1.70;;
57615;SDS011;43816;52.054;-9.494;2022-12-18T00:22:41;3.00;;;1.67;;
57615;SDS011;43816;52.054;-9.494;2022-12-18T00:22:52;3.28;;;1.60;;
57615;SDS011;43816;52.054;-9.494;2022-12-18T00:23:03;3.65;;;1.60;;
57615;SDS011;43816;52.054;-9.494;2022-12-18T00:23:14;3.10;;;1.60;;
57615;SDS011;43816;52.054;-9.494;2022-12-18T00:23:31;2.70;;;1.52;;
57615;SDS011;43816;52.054;-9.494;2022-12-18T00:23:43;2.60;;;1.70;;
57615;SDS011;43816;52.054;-9.494;2022-12-18T00:23:53;2.38;;;1.80;;
57615;SDS011;43816;52.054;-9.494;2022-12-18T00:24:04;3.87;;;1.93;;
57615;SDS011;43816;52.054;-9.494;2022-12-18T00:24:14;4.00;;;1.80;;
57615;SDS011;43816;52.054;-9.494;2022-12-18T00:24:25;4.03;;;1.60;;
57615;SDS011;43816;52.054;-9.494;2022-12-18T00:24:35;2.80;;;1.50;;
57615;SDS011;43816;52.054;-9.494;2022-12-18T00:24:45;2.63;;;1.48;;
57615;SDS011;43816;52.054;-9.494;2022-12-18T00:24:56;2.23;;;1.50;;
57615;SDS011;43816;52.054;-9.494;2022-12-18T00:25:06;2.27;;;1.60;;
57615;SDS011;43816;52.054;-9.494;2022-12-18T00:25:17;2.38;;;1.55;;
57615;SDS011;43816;52.054;-9.494;2022-12-18T00:25:27;3.00;;;1.70;;
57615;SDS011;43816;52.054;-9.494;2022-12-18T00:25:37;3.15;;;1.65;;
57615;SDS011;43816;52.054;-9.494;2022-12-18T00:25:47;3.27;;;1.70;;
57615;SDS011;43816;52.054;-9.494;2022-12-18T00:25:58;2.83;;;1.70;;
57615;SDS011;43816;52.054;-9.494;2022-12-18T00:26:10;2.67;;;1.60;;
57615;SDS011;43816;52.054;-9.494;2022-12-18T00:26:30;2.85;;;1.58;;
57615;SDS011;43816;52.054;-9.494;2022-12-18T00:26:42;2.33;;;1.42;;
57615;SDS011;43816;52.054;-9.494;2022-12-18T00:26:52;2.27;;;1.40;;
57615;SDS011;43816;52.054;-9.494;2022-12-18T00:27:02;2.20;;;1.43;;
57615;SDS011;43816;52.054;-9.494;2022-12-18T00:27:13;2.80;;;1.57;;
57615;SDS011;43816;52.054;-9.494;2022-12-18T00:27:23;2.88;;;1.50;;
57615;SDS011;43816;52.054;-9.494;2022-12-18T00:27:33;2.87;;;1.50;;
57615;SDS011;43816;52.054;-9.494;2022-12-18T00:27:43;2.90;;;1.50;;
57615;SDS011;43816;52.054;-9.494;2022-12-18T00:27:54;3.10;;;1.58;;
57615;SDS011;43816;52.054;-9.494;2022-12-18T00:28:04;3.40;;;1.57;;
57615;SDS011;43816;52.054;-9.494;2022-12-18T00:28:14;3.67;;;1.60;;
57615;SDS011;43816;52.054;-9.494;2022-12-18T00:28:25;3.58;;;1.55;;
57615;SDS011;43816;52.054;-9.494;2022-12-18T00:28:35;3.30;;;1.50;;
57615;SDS011;43816;52.054;-9.494;2022-12-18T00:28:45;2.73;;;1.40;;
57615;SDS011;43816;52.054;-9.494;2022-12-18T00:29:00;2.92;;;1.48;;
57615;SDS011;43816;52.054;-9.494;2022-12-18T00:29:13;3.05;;;1.60;;
57615;SDS011;43816;52.054;-9.494;2022-12-18T00:29:23;2.67;;;1.60;;
57615;SDS011;43816;52.054;-9.494;2022-12-18T00:29:33;3.08;;;1.42;;
57615;SDS011;43816;52.054;-9.494;2022-12-18T00:29:44;3.13;;;1.33;;
57615;SDS011;43816;52.054;-9.494;2022-12-18T00:29:54;3.20;;;1.20;;
57615;SDS011;43816;52.054;-9.494;2022-12-18T00:30:05;2.92;;;1.30;;
57615;SDS011;43816;52.054;-9.494;2022-12-18T00:30:15;3.25;;;1.38;;
57615;SDS011;43816;52.054;-9.494;2022-12-18T00:30:26;3.70;;;1.53;;
57615;SDS011;43816;52.054;-9.494;2022-12-18T00:30:36;3.87;;;1.60;;
57615;SDS011;43816;52.054;-9.494;2022-12-18T00:30:46;3.63;;;1.70;;
57615;SDS011;43816;52.054;-9.494;2022-12-18T00:31:00;3.27;;;1.67;;
57615;SDS011;43816;52.054;-9.494;2022-12-18T00:31:14;3.95;;;1.75;;
57615;SDS011;43816;52.054;-9.494;2022-12-18T00:31:26;4.07;;;1.85;;
57615;SDS011;43816;52.054;-9.494;2022-12-18T00:31:37;3.58;;;1.73;;
57615;SDS011;43816;52.054;-9.494;2022-12-18T00:31:48;3.33;;;1.53;;
57615;SDS011;43816;52.054;-9.494;2022-12-18T00:32:00;2.80;;;1.50;;
57615;SDS011;43816;52.054;-9.494;2022-12-18T00:32:11;2.30;;;1.40;;
57615;SDS011;43816;52.054;-9.494;2022-12-18T00:32:21;2.15;;;1.38;;
57615;SDS011;43816;52.054;-9.494;2022-12-18T00:32:32;2.47;;;1.30;;
57615;SDS011;43816;52.054;-9.494;2022-12-18T00:32:42;2.90;;;1.40;;
57615;SDS011;43816;52.054;-9.494;2022-12-18T00:32:53;2.73;;;1.40;;
57615;SDS011;43816;52.054;-9.494;2022-12-18T00:33:03;2.88;;;1.40;;
57615;SDS011;43816;52.054;-9.494;2022-12-18T00:33:13;2.60;;;1.40;;
57615;SDS011;43816;52.054;-9.494;2022-12-18T00:33:23;4.00;;;1.50;;
57615;SDS011;43816;52.054;-9.494;2022-12-18T00:33:34;3.65;;;1.48;;
57615;SDS011;43816;52.054;-9.494;2022-12-18T00:33:45;3.80;;;1.50;;
57615;SDS011;43816;52.054;-9.494;2022-12-18T00:33:56;2.97;;;1.50;;
57615;SDS011;43816;52.054;-9.494;2022-12-18T00:34:09;3.28;;;1.55;;
57615;SDS011;43816;52.054;-9.494;2022-12-18T00:34:21;4.15;;;1.63;;
57615;SDS011;43816;52.054;-9.494;2022-12-18T00:34:31;3.67;;;1.60;;
57615;SDS011;43816;52.054;-9.494;2022-12-18T00:34:41;3.87;;;1.60;;
57615;SDS011;43816;52.054;-9.494;2022-12-18T00:34:51;4.00;;;1.70;;
57615;SDS011;43816;52.054;-9.494;2022-12-18T00:35:02;4.57;;;1.90;;
57615;SDS011;43816;52.054;-9.494;2022-12-18T00:35:13;4.22;;;1.95;;
57615;SDS011;43816;52.054;-9.494;2022-12-18T00:36:15;3.25;;;1.65;;
57615;SDS011;43816;52.054;-9.494;2022-12-18T00:36:29;3.00;;;1.55;;
57615;SDS011;43816;52.054;-9.494;2022-12-18T00:36:41;3.00;;;1.55;;
57615;SDS011;43816;52.054;-9.494;2022-12-18T00:36:52;2.77;;;1.63;;
57615;SDS011;43816;52.054;-9.494;2022-12-18T00:37:02;3.00;;;1.60;;
57615;SDS011;43816;52.054;-9.494;2022-12-18T00:37:12;3.30;;;1.60;;
57615;SDS011;43816;52.054;-9.494;2022-12-18T00:37:22;3.73;;;1.73;;
57615;SDS011;43816;52.054;-9.494;2022-12-18T00:37:36;3.63;;;1.80;;
57615;SDS011;43816;52.054;-9.494;2022-12-18T00:38:01;4.10;;;1.60;;
57615;SDS011;43816;52.054;-9.494;2022-12-18T00:38:12;3.33;;;1.50;;
57615;SDS011;43816;52.054;-9.494;2022-12-18T00:38:22;2.77;;;1.70;;
57615;SDS011;43816;52.054;-9.494;2022-12-18T00:38:33;2.83;;;1.60;;
57615;SDS011;43816;52.054;-9.494;2022-12-18T00:38:43;3.10;;;1.60;;
57615;SDS011;43816;52.054;-9.494;2022-12-18T00:38:55;3.05;;;1.60;;
57615;SDS011;43816;52.054;-9.494;2022-12-18T00:39:12;3.03;;;1.60;;
57615;SDS011;43816;52.054;-9.494;2022-12-18T00:39:22;3.10;;;1.40;;
57615;SDS011;43816;52.054;-9.494;2022-12-18T00:39:33;3.50;;;1.47;;
57615;SDS011;43816;52.054;-9.494;2022-12-18T00:39:43;3.77;;;1.57;;
57615;SDS011;43816;52.054;-9.494;2022-12-18T00:39:53;3.60;;;1.73;;
57615;SDS011;43816;52.054;-9.494;2022-12-18T00:40:04;3.03;;;1.80;;
57615;SDS011;43816;52.054;-9.494;2022-12-18T00:40:14;3.08;;;1.70;;
57615;SDS011;43816;52.054;-9.494;2022-12-18T00:40:25;2.80;;;1.60;;
57615;SDS011;43816;52.054;-9.494;2022-12-18T00:40:35;3.03;;;1.63;;
57615;SDS011;43816;52.054;-9.494;2022-12-18T00:40:45;3.47;;;1.70;;
57615;SDS011;43816;52.054;-9.494;2022-12-18T00:40:56;3.73;;;1.70;;
57615;SDS011;43816;52.054;-9.494;2022-12-18T00:41:06;3.90;;;1.70;;
57615;SDS011;43816;52.054;-9.494;2022-12-18T00:41:18;3.80;;;1.60;;
57615;SDS011;43816;52.054;-9.494;2022-12-18T00:41:28;3.75;;;1.70;;
57615;SDS011;43816;52.054;-9.494;2022-12-18T00:41:39;3.70;;;1.70;;
57615;SDS011;43816;52.054;-9.494;2022-12-18T00:41:49;3.35;;;1.80;;
57615;SDS011;43816;52.054;-9.494;2022-12-18T00:41:59;3.47;;;1.80;;
57615;SDS011;43816;52.054;-9.494;2022-12-18T00:42:10;3.50;;;1.83;;
57615;SDS011;43816;52.054;-9.494;2022-12-18T00:42:20;4.63;;;1.95;;
57615;SDS011;43816;52.054;-9.494;2022-12-18T00:42:30;4.73;;;1.93;;
57615;SDS011;43816;52.054;-9.494;2022-12-18T00:42:40;3.97;;;1.73;;
57615;SDS011;43816;52.054;-9.494;2022-12-18T00:42:51;2.93;;;1.53;;
57615;SDS011;43816;52.054;-9.494;2022-12-18T00:43:01;3.42;;;1.55;;
57615;SDS011;43816;52.054;-9.494;2022-12-18T00:43:11;4.27;;;1.67;;
57615;SDS011;43816;52.054;-9.494;2022-12-18T00:43:21;4.43;;;1.70;;
57615;SDS011;43816;52.054;-9.494;2022-12-18T00:43:33;4.35;;;1.75;;
57615;SDS011;43816;52.054;-9.494;2022-12-18T00:43:43;3.45;;;1.60;;
57615;SDS011;43816;52.054;-9.494;2022-12-18T00:43:53;3.07;;;1.60;;
57615;SDS011;43816;52.054;-9.494;2022-12-18T00:44:04;2.58;;;1.52;;
57615;SDS011;43816;52.054;-9.494;2022-12-18T00:44:16;2.95;;;1.75;;
57615;SDS011;43816;52.054;-9.494;2022-12-18T00:44:28;3.28;;;1.77;;
57615;SDS011;43816;52.054;-9.494;2022-12-18T00:44:38;3.70;;;1.80;;
57615;SDS011;43816;52.054;-9.494;2022-12-18T00:44:48;3.53;;;1.77;;
57615;SDS011;43816;52.054;-9.494;2022-12-18T00:44:58;3.55;;;1.73;;
57615;SDS011;43816;52.054;-9.494;2022-12-18T00:45:09;3.37;;;1.80;;
57615;SDS011;43816;52.054;-9.494;2022-12-18T00:45:19;3.38;;;1.80;;
57615;SDS011;43816;52.054;-9.494;2022-12-18T00:45:30;3.20;;;1.90;;
57615;SDS011;43816;52.054;-9.494;2022-12-18T00:45:41;3.22;;;1.85;;
57615;SDS011;43816;52.054;-9.494;2022-12-18T00:45:51;3.27;;;1.90;;
57615;SDS011;43816;52.054;-9.494;2022-12-18T00:46:01;3.80;;;1.90;;
57615;SDS011;43816;52.054;-9.494;2022-12-18T00:46:11;4.53;;;1.90;;
57615;SDS011;43816;52.054;-9.494;2022-12-18T00:46:22;4.93;;;1.90;;
57615;SDS011;43816;52.054;-9.494;2022-12-18T00:46:32;4.63;;;1.73;;
57615;SDS011;43816;52.054;-9.494;2022-12-18T00:46:43;3.73;;;1.50;;
57615;SDS011;43816;52.054;-9.494;2022-12-18T00:46:54;3.25;;;1.50;;
57615;SDS011;43816;52.054;-9.494;2022-12-18T00:47:04;3.13;;;1.50;;
57615;SDS011;43816;52.054;-9.494;2022-12-18T00:47:14;3.80;;;1.60;;
57615;SDS011;43816;52.054;-9.494;2022-12-18T00:47:25;3.90;;;1.80;;
57615;SDS011;43816;52.054;-9.494;2022-12-18T00:47:35;4.18;;;1.90;;
57615;SDS011;43816;52.054;-9.494;2022-12-18T00:47:45;3.77;;;1.87;;
57615;SDS011;43816;52.054;-9.494;2022-12-18T00:47:56;3.97;;;1.80;;
57615;SDS011;43816;52.054;-9.494;2022-12-18T00:48:07;3.20;;;1.90;;
57615;SDS011;43816;52.054;-9.494;2022-12-18T00:48:17;2.83;;;1.90;;
57615;SDS011;43816;52.054;-9.494;2022-12-18T00:48:27;2.60;;;1.73;;
57615;SDS011;43816;52.054;-9.494;2022-12-18T00:48:37;3.57;;;1.80;;
57615;SDS011;43816;52.054;-9.494;2022-12-18T00:48:48;4.05;;;1.80;;
57615;SDS011;43816;52.054;-9.494;2022-12-18T00:48:58;4.27;;;1.90;;
57615;SDS011;43816;52.054;-9.494;2022-12-18T00:49:09;3.45;;;1.75;;
57615;SDS011;43816;52.054;-9.494;2022-12-18T00:49:19;3.93;;;1.80;;
57615;SDS011;43816;52.054;-9.494;2022-12-18T00:49:30;4.28;;;1.90;;
57615;SDS011;43816;52.054;-9.494;2022-12-18T00:49:40;4.77;;;2.07;;
57615;SDS011;43816;52.054;-9.494;2022-12-18T00:49:50;4.53;;;1.87;;
57615;SDS011;43816;52.054;-9.494;2022-12-18T00:50:01;4.38;;;1.73;;
57615;SDS011;43816;52.054;-9.494;2022-12-18T00:50:11;4.15;;;1.67;;
57615;SDS011;43816;52.054;-9.494;2022-12-18T00:50:22;4.60;;;1.77;;
57615;SDS011;43816;52.054;-9.494;2022-12-18T00:50:34;4.63;;;1.73;;
57615;SDS011;43816;52.054;-9.494;2022-12-18T00:50:44;3.75;;;1.60;;
57615;SDS011;43816;52.054;-9.494;2022-12-18T00:50:55;3.47;;;1.60;;
57615;SDS011;43816;52.054;-9.494;2022-12-18T00:51:05;3.37;;;1.67;;
57615;SDS011;43816;52.054;-9.494;2022-12-18T00:51:15;3.83;;;1.80;;
57615;SDS011;43816;52.054;-9.494;2022-12-18T00:51:26;3.83;;;1.73;;
57615;SDS011;43816;52.054;-9.494;2022-12-18T00:51:36;3.90;;;1.73;;
57615;SDS011;43816;52.054;-9.494;2022-12-18T00:51:46;3.70;;;1.73;;
57615;SDS011;43816;52.054;-9.494;2022-12-18T00:51:57;4.35;;;1.83;;
57615;SDS011;43816;52.054;-9.494;2022-12-18T00:52:07;4.10;;;1.90;;
57615;SDS011;43816;52.054;-9.494;2022-12-18T00:52:18;3.80;;;1.80;;
57615;SDS011;43816;52.054;-9.494;2022-12-18T00:52:28;3.28;;;1.60;;
57615;SDS011;43816;52.054;-9.494;2022-12-18T00:52:38;3.27;;;1.50;;
57615;SDS011;43816;52.054;-9.494;2022-12-18T00:52:50;3.92;;;1.50;;
57615;SDS011;43816;52.054;-9.494;2022-12-18T00:53:01;3.70;;;1.50;;
57615;SDS011;43816;52.054;-9.494;2022-12-18T00:53:11;4.22;;;1.60;;
57615;SDS011;43816;52.054;-9.494;2022-12-18T00:53:22;4.17;;;1.60;;
57615;SDS011;43816;52.054;-9.494;2022-12-18T00:53:32;3.58;;;1.55;;
57615;SDS011;43816;52.054;-9.494;2022-12-18T00:53:42;2.73;;;1.40;;
57615;SDS011;43816;52.054;-9.494;2022-12-18T00:53:53;2.40;;;1.33;;
57615;SDS011;43816;52.054;-9.494;2022-12-18T00:54:03;2.45;;;1.50;;
57615;SDS011;43816;52.054;-9.494;2022-12-18T00:54:14;3.28;;;1.55;;
57615;SDS011;43816;52.054;-9.494;2022-12-18T00:54:24;3.80;;;1.77;;
57615;SDS011;43816;52.054;-9.494;2022-12-18T00:54:35;3.85;;;1.70;;
57615;SDS011;43816;52.054;-9.494;2022-12-18T00:54:45;3.73;;;1.60;;
57615;SDS011;43816;52.054;-9.494;2022-12-18T00:54:55;2.97;;;1.27;;
57615;SDS011;43816;52.054;-9.494;2022-12-18T00:55:06;2.95;;;1.25;;
57615;SDS011;43816;52.054;-9.494;2022-12-18T00:55:16;3.00;;;1.40;;
57615;SDS011;43816;52.054;-9.494;2022-12-18T00:55:27;3.67;;;1.60;;
57615;SDS011;43816;52.054;-9.494;2022-12-18T00:55:41;3.87;;;1.60;;
57615;SDS011;43816;52.054;-9.494;2022-12-18T00:55:51;4.72;;;1.60;;
57615;SDS011;43816;52.054;-9.494;2022-12-18T00:56:02;4.40;;;1.40;;
57615;SDS011;43816;52.054;-9.494;2022-12-18T00:56:12;4.43;;;1.57;;
57615;SDS011;43816;52.054;-9.494;2022-12-18T00:56:22;3.42;;;1.58;;
57615;SDS011;43816;52.054;-9.494;2022-12-18T00:56:35;3.78;;;1.70;;
57615;SDS011;43816;52.054;-9.494;2022-12-18T00:56:46;3.53;;;1.63;;
57615;SDS011;43816;52.054;-9.494;2022-12-18T00:56:56;3.57;;;1.70;;
57615;SDS011;43816;52.054;-9.494;2022-12-18T00:57:07;3.50;;;1.63;;
57615;SDS011;43816;52.054;-9.494;2022-12-18T00:57:17;3.57;;;1.73;;
57615;SDS011;43816;52.054;-9.494;2022-12-18T00:57:27;3.50;;;1.70;;
57615;SDS011;43816;52.054;-9.494;2022-12-18T00:57:37;3.23;;;1.67;;
57615;SDS011;43816;52.054;-9.494;2022-12-18T00:57:48;3.17;;;1.60;;
57615;SDS011;43816;52.054;-9.494;2022-12-18T00:58:00;3.70;;;1.88;;
57615;SDS011;43816;52.054;-9.494;2022-12-18T00:58:11;3.80;;;2.00;;
57615;SDS011;43816;52.054;-9.494;2022-12-18T00:58:22;3.25;;;1.73;;
57615;SDS011;43816;52.054;-9.494;2022-12-18T00:58:33;2.75;;;1.58;;
57615;SDS011;43816;52.054;-9.494;2022-12-18T00:58:43;3.20;;;1.50;;
57615;SDS011;43816;52.054;-9.494;2022-12-18T00:58:53;3.80;;;1.73;;
57615;SDS011;43816;52.054;-9.494;2022-12-18T00:59:04;4.30;;;1.80;;
57615;SDS011;43816;52.054;-9.494;2022-12-18T00:59:15;4.03;;;1.80;;
57615;SDS011;43816;52.054;-9.494;2022-12-18T00:59:25;3.55;;;1.67;;
57615;SDS011;43816;52.054;-9.494;2022-12-18T00:59:36;3.47;;;1.60;;
57615;SDS011;43816;52.054;-9.494;2022-12-18T00:59:46;4.03;;;1.70;;
57615;SDS011;43816;52.054;-9.494;2022-12-18T00:59:56;3.63;;;1.60;;
57615;SDS011;43816;52.054;-9.494;2022-12-18T01:00:09;3.42;;;1.60;;
57615;SDS011;43816;52.054;-9.494;2022-12-18T01:00:22;3.25;;;1.65;;
57615;SDS011;43816;52.054;-9.494;2022-12-18T01:00:32;3.77;;;1.87;;
57615;SDS011;43816;52.054;-9.494;2022-12-18T01:00:42;3.97;;;1.90;;
57615;SDS011;43816;52.054;-9.494;2022-12-18T01:00:53;3.95;;;1.92;;
57615;SDS011;43816;52.054;-9.494;2022-12-18T01:01:04;3.60;;;1.80;;
57615;SDS011;43816;52.054;-9.494;2022-12-18T01:01:15;3.72;;;1.70;;
57615;SDS011;43816;52.054;-9.494;2022-12-18T01:01:26;3.63;;;1.80;;
57615;SDS011;43816;52.054;-9.494;2022-12-18T01:01:36;3.40;;;1.73;;
57615;SDS011;43816;52.054;-9.494;2022-12-18T01:01:46;2.92;;;1.70;;
57615;SDS011;43816;52.054;-9.494;2022-12-18T01:01:57;2.40;;;1.50;;
57615;SDS011;43816;52.054;-9.494;2022-12-18T01:02:07;2.80;;;1.60;;
57615;SDS011;43816;52.054;-9.494;2022-12-18T01:02:17;2.92;;;1.50;;
57615;SDS011;43816;52.054;-9.494;2022-12-18T01:02:27;3.57;;;1.70;;
57615;SDS011;43816;52.054;-9.494;2022-12-18T01:02:38;3.53;;;1.70;;
57615;SDS011;43816;52.054;-9.494;2022-12-18T01:02:48;4.25;;;1.90;;
57615;SDS011;43816;52.054;-9.494;2022-12-18T01:02:58;4.10;;;1.90;;
57615;SDS011;43816;52.054;-9.494;2022-12-18T01:03:09;4.07;;;2.00;;
57615;SDS011;43816;52.054;-9.494;2022-12-18T01:03:23;3.97;;;1.88;;
57615;SDS011;43816;52.054;-9.494;2022-12-18T01:03:33;4.33;;;2.07;;
57615;SDS011;43816;52.054;-9.494;2022-12-18T01:03:44;4.37;;;2.00;;
57615;SDS011;43816;52.054;-9.494;2022-12-18T01:03:54;4.43;;;2.00;;
57615;SDS011;43816;52.054;-9.494;2022-12-18T01:04:04;4.43;;;1.90;;
57615;SDS011;43816;52.054;-9.494;2022-12-18T01:04:14;4.20;;;2.10;;
57615;SDS011;43816;52.054;-9.494;2022-12-18T01:04:25;3.58;;;2.17;;
57615;SDS011;43816;52.054;-9.494;2022-12-18T01:04:35;3.83;;;2.10;;
57615;SDS011;43816;52.054;-9.494;2022-12-18T01:04:45;4.47;;;2.10;;
57615;SDS011;43816;52.054;-9.494;2022-12-18T01:04:56;4.47;;;2.17;;
57615;SDS011;43816;52.054;-9.494;2022-12-18T01:05:06;4.27;;;2.20;;
57615;SDS011;43816;52.054;-9.494;2022-12-18T01:05:18;3.78;;;2.13;;
57615;SDS011;43816;52.054;-9.494;2022-12-18T01:05:28;3.90;;;2.10;;
57615;SDS011;43816;52.054;-9.494;2022-12-18T01:05:42;4.30;;;2.10;;
57615;SDS011;43816;52.054;-9.494;2022-12-18T01:05:52;4.35;;;2.15;;
57615;SDS011;43816;52.054;-9.494;2022-12-18T01:06:06;4.97;;;2.13;;